Stena Europe — VSTA3 — position and weather

sailwx.info

Track history (hours):
 
Tides and Currents Weather Stations Pressure Air Temp Water Temp Dewpoint Dewpoint Depression Visibility Wind Speed Wind Dir Waves Ship Positions

Stena Europe

Operator: Stena Line

Last reported at 2019-Jan-23 17:30 UTC. Time now 2019-Jan-23 17:34 UTC.
Position N 52°15' W 006°20'.

Length 149 m; draft 6.1 m.

Type: Passenger vessel. MMSI: 235004539.

Date/timePositionNaut miles runAvg speedWind from/ knotsBaromVisibWave heightAir tempDewpointWater temp
2019-Jan-23 17:30N 52°15' W 006°20'0 0.0
2019-Jan-23 17:00N 52°15' W 006°20'0 0.0
2019-Jan-23 16:30N 52°15' W 006°20'3 6.9
2019-Jan-23 16:00N 52°14' W 006°15'917.0
2019-Jan-23 15:30N 52°11' W 006°02'917.1
2019-Jan-23 15:00N 52°09' W 005°48'2 0.3
2019-Jan-23 09:15N 52°10' W 005°45'417.4
2019-Jan-23 09:00N 52°11' W 005°52'917.3
2019-Jan-23 08:30N 52°13' W 006°06'816.8
2019-Jan-23 08:00N 52°16' W 006°19'1 2.0
2019-Jan-23 07:30N 52°15' W 006°20'0 0.0
2019-Jan-23 07:00N 52°15' W 006°20'0 0.0
2019-Jan-23 06:30N 52°15' W 006°20'0 0.0
2019-Jan-23 06:00N 52°15' W 006°20'0 0.0
2019-Jan-23 05:30N 52°15' W 006°20'0 0.0
2019-Jan-23 05:00N 52°15' W 006°20'0 0.0
2019-Jan-23 04:30N 52°15' W 006°20'0 0.0
2019-Jan-23 04:00N 52°15' W 006°20'3 5.1
2019-Jan-23 03:30N 52°15' W 006°16'815.9
2019-Jan-23 03:00N 52°13' W 006°03'815.8
2019-Jan-23 02:28N 52°10' W 005°50'6 0.8
2019-Jan-22 19:08N 52°11' W 005°59'216.8
2019-Jan-22 19:00N 52°12' W 006°03'816.8
2019-Jan-22 18:30N 52°15' W 006°15'3 6.0
2019-Jan-22 18:00N 52°15' W 006°20'0 0.0
2019-Jan-22 17:30N 52°15' W 006°20'0 0.0
2019-Jan-22 17:00N 52°15' W 006°20'1 1.4
2019-Jan-22 16:31N 52°16' W 006°19'815.5
2019-Jan-22 16:00N 52°13' W 006°07'815.6
2019-Jan-22 15:30N 52°11' W 005°55'7 1.1
2019-Jan-22 09:18N 52°10' W 005°44'516.9
2019-Jan-22 09:00N 52°11' W 005°52'917.2
2019-Jan-22 08:30N 52°13' W 006°05'816.6
2019-Jan-22 08:00N 52°15' W 006°18'1 2.3
2019-Jan-22 07:30N 52°15' W 006°20'0 0.0
2019-Jan-22 07:00N 52°15' W 006°20'0 0.0
2019-Jan-22 06:30N 52°15' W 006°20'0 0.0
2019-Jan-22 06:00N 52°15' W 006°20'0 0.0
2019-Jan-22 05:30N 52°15' W 006°20'0 0.0
2019-Jan-22 05:00N 52°15' W 006°20'0 0.0
2019-Jan-22 04:30N 52°15' W 006°20'0 0.0
2019-Jan-22 04:00N 52°15' W 006°20'3 5.6
2019-Jan-22 03:30N 52°14' W 006°16'1313.3
2019-Jan-22 02:30N 52°13' W 005°54'7 0.9
2019-Jan-21 19:28N 52°10' W 005°45'716.5
2019-Jan-21 19:01N 52°11' W 005°57'816.2
2019-Jan-21 18:30N 52°14' W 006°09'713.6
2019-Jan-21 18:00N 52°15' W 006°20'0 0.1
2019-Jan-21 17:30N 52°15' W 006°20'0 0.0
2019-Jan-21 17:00N 52°15' W 006°20'2 4.1
2019-Jan-21 16:31N 52°15' W 006°17'815.6
2019-Jan-21 16:01N 52°13' W 006°05'816.0
2019-Jan-21 15:31N 52°11' W 005°52'2 0.4
2019-Jan-21 09:05N 52°09' W 005°49'117.2
2019-Jan-21 09:00N 52°10' W 005°51'917.5
2019-Jan-21 08:29N 52°13' W 006°05'817.2
2019-Jan-21 08:00N 52°15' W 006°18'1 2.5
2019-Jan-21 07:31N 52°15' W 006°20'0 0.0
2019-Jan-21 07:01N 52°15' W 006°20'0 0.0
2019-Jan-21 06:30N 52°15' W 006°20'0 0.0
2019-Jan-21 06:01N 52°15' W 006°20'0 0.0
2019-Jan-21 05:31N 52°15' W 006°20'0 0.0
2019-Jan-21 05:00N 52°15' W 006°20'0 0.0
2019-Jan-21 04:30N 52°15' W 006°20'0 0.0
2019-Jan-21 04:00N 52°15' W 006°20'3 5.6
2019-Jan-21 03:30N 52°15' W 006°16'816.6
2019-Jan-21 03:00N 52°12' W 006°03'713.8
2019-Jan-21 02:30N 52°11' W 005°52'3 0.4
2019-Jan-20 18:53N 52°11' W 005°57'717.2
2019-Jan-20 18:30N 52°14' W 006°07'816.3
2019-Jan-20 18:00N 52°16' W 006°20'1 1.0
2019-Jan-20 17:30N 52°15' W 006°20'0 0.0
2019-Jan-20 17:00N 52°15' W 006°20'0 0.0
2019-Jan-20 16:30N 52°15' W 006°20'2 4.9
2019-Jan-20 16:00N 52°15' W 006°16'816.5
2019-Jan-20 15:30N 52°13' W 006°03'816.4
2019-Jan-20 15:00N 52°11' W 005°50'4 0.7
2019-Jan-20 08:40N 52°12' W 005°57'317.6
2019-Jan-20 08:30N 52°12' W 006°02'917.3
2019-Jan-20 08:01N 52°14' W 006°15'3 6.3
2019-Jan-20 07:30N 52°15' W 006°20'0 0.0
2019-Jan-20 07:00N 52°15' W 006°20'0 0.0
2019-Jan-20 06:30N 52°15' W 006°20'0 0.0
2019-Jan-20 06:00N 52°15' W 006°20'0 0.0
2019-Jan-20 05:30N 52°15' W 006°20'0 0.0
2019-Jan-20 05:00N 52°15' W 006°20'0 0.0
2019-Jan-20 04:30N 52°15' W 006°20'0 0.0
2019-Jan-20 04:00N 52°15' W 006°20'2 4.8
2019-Jan-20 03:30N 52°15' W 006°16'815.4
2019-Jan-20 03:00N 52°13' W 006°04'612.8
2019-Jan-20 02:30N 52°11' W 005°54'713.0
2019-Jan-20 02:00N 52°10' W 005°44'8 1.1
2019-Jan-19 19:04N 52°11' W 005°56'117.1
2019-Jan-19 19:00N 52°11' W 005°58'817.4
2019-Jan-19 18:31N 52°14' W 006°11'611.8
2019-Jan-19 18:00N 52°15' W 006°20'0 0.0
2019-Jan-19 17:30N 52°15' W 006°20'0 0.0
2019-Jan-19 17:01N 52°15' W 006°20'1 2.2
2019-Jan-19 16:30N 52°15' W 006°18'815.9
2019-Jan-19 16:00N 52°13' W 006°06'815.8
2019-Jan-19 15:30N 52°11' W 005°53'4 0.6
2019-Jan-19 08:51N 52°12' W 005°60'616.8
2019-Jan-19 08:30N 52°13' W 006°09'714.7
2019-Jan-19 08:00N 52°15' W 006°20'0 0.2
2019-Jan-19 07:30N 52°15' W 006°20'0 0.0
2019-Jan-19 07:00N 52°15' W 006°20'0 0.0
2019-Jan-19 06:30N 52°15' W 006°20'0 0.0
2019-Jan-19 06:00N 52°15' W 006°20'0 0.0
2019-Jan-19 05:30N 52°15' W 006°20'0 0.0
2019-Jan-19 05:01N 52°15' W 006°20'0 0.0
2019-Jan-19 04:30N 52°15' W 006°20'0 0.0
2019-Jan-19 04:00N 52°15' W 006°20'4 8.2
2019-Jan-19 03:31N 52°14' W 006°14'713.2
2019-Jan-19 03:00N 52°15' W 006°03'612.2
2019-Jan-19 02:30N 52°15' W 005°53'712.8
2019-Jan-19 01:59N 52°13' W 005°43'10 1.5
2019-Jan-18 19:29N 52°12' W 005°58'817.8
2019-Jan-18 19:00N 52°14' W 006°12'510.7
2019-Jan-18 18:31N 52°15' W 006°20'0 0.0
2019-Jan-18 18:01N 52°15' W 006°20'0 0.8
2019-Jan-18 17:30N 52°16' W 006°20'815.8
2019-Jan-18 17:00N 52°13' W 006°08'815.6
2019-Jan-18 16:30N 52°11' W 005°55'0 0.0
2019-Jan-18 09:04N 52°11' W 005°56'414.4
2019-Jan-18 08:49N 52°12' W 006°01'414.0
2019-Jan-18 08:30N 52°13' W 006°08'714.3
2019-Jan-18 08:00N 52°16' W 006°19'1 1.3
2019-Jan-18 07:31N 52°15' W 006°20'0 0.0
2019-Jan-18 07:00N 52°15' W 006°20'0 0.0
2019-Jan-18 06:30N 52°15' W 006°20'0 0.0
2019-Jan-18 06:00N 52°15' W 006°20'0 0.0
2019-Jan-18 05:31N 52°15' W 006°20'0 0.0
2019-Jan-18 05:00N 52°15' W 006°20'0 0.0
2019-Jan-18 04:30N 52°15' W 006°20'0 0.1
2019-Jan-18 04:01N 52°15' W 006°20'5 9.8
2019-Jan-18 03:30N 52°14' W 006°12'816.4
2019-Jan-18 03:00N 52°12' W 005°59'817.0
2019-Jan-18 02:30N 52°10' W 005°46'3 0.5
2019-Jan-17 20:33N 52°10' W 005°50'517.8
2019-Jan-17 20:15N 52°12' W 005°59'417.7
2019-Jan-17 20:00N 52°13' W 006°06'917.6
2019-Jan-17 19:30N 52°16' W 006°19'1 1.3
2019-Jan-17 19:00N 52°15' W 006°20'0 0.0
2019-Jan-17 18:30N 52°15' W 006°20'0 0.2
2019-Jan-17 18:00N 52°15' W 006°20'511.0
2019-Jan-17 17:30N 52°14' W 006°12'816.9
2019-Jan-17 17:01N 52°12' W 005°58'816.6
2019-Jan-17 16:30N 52°10' W 005°45'4 0.6
2019-Jan-17 09:05N 52°10' W 005°52'116.7
2019-Jan-17 09:00N 52°11' W 005°54'816.7
2019-Jan-17 08:30N 52°13' W 006°07'816.6
2019-Jan-17 08:00N 52°16' W 006°20'0 0.9
2019-Jan-17 07:31N 52°15' W 006°20'0 0.0
2019-Jan-17 07:00N 52°15' W 006°20'0 0.0
2019-Jan-17 06:30N 52°15' W 006°20'0 0.0
2019-Jan-17 06:01N 52°15' W 006°20'0 0.0
2019-Jan-17 05:30N 52°15' W 006°20'0 0.0
2019-Jan-17 05:01N 52°15' W 006°20'0 0.0
2019-Jan-17 04:31N 52°15' W 006°20'0 0.0
2019-Jan-17 04:01N 52°15' W 006°20'1010.1
2019-Jan-17 03:00N 52°13' W 006°04'815.4
2019-Jan-17 02:30N 52°11' W 005°52'2 0.3
2019-Jan-16 19:09N 52°11' W 005°55'317.5
2019-Jan-16 19:00N 52°12' W 005°60'817.2
2019-Jan-16 18:30N 52°14' W 006°13'5 9.2
2019-Jan-16 18:00N 52°15' W 006°20'0 0.0
2019-Jan-16 17:30N 52°15' W 006°20'0 0.0
2019-Jan-16 17:00N 52°15' W 006°20'1 1.8
2019-Jan-16 16:30N 52°16' W 006°19'816.4
2019-Jan-16 16:00N 52°13' W 006°06'816.0
2019-Jan-16 15:30N 52°11' W 005°53'2 0.3
2019-Jan-16 09:03N 52°10' W 005°51'117.1
2019-Jan-16 09:00N 52°10' W 005°52'817.0
2019-Jan-16 08:30N 52°13' W 006°05'816.9
2019-Jan-16 08:00N 52°15' W 006°18'1 2.6
2019-Jan-16 07:30N 52°15' W 006°20'0 0.0
2019-Jan-16 07:00N 52°15' W 006°20'0 0.0
2019-Jan-16 06:30N 52°15' W 006°20'0 0.0
2019-Jan-16 06:00N 52°15' W 006°20'0 0.0
2019-Jan-16 05:30N 52°15' W 006°20'0 0.0
2019-Jan-16 05:00N 52°15' W 006°20'0 0.0
2019-Jan-16 04:30N 52°15' W 006°20'0 0.0
2019-Jan-16 04:00N 52°15' W 006°20'3 6.9
2019-Jan-16 03:30N 52°14' W 006°15'713.7
2019-Jan-16 03:00N 52°13' W 006°04'713.0
2019-Jan-16 02:30N 52°11' W 005°54'3 0.5
2019-Jan-15 19:41N 52°10' W 005°48'317.2
2019-Jan-15 19:30N 52°11' W 005°54'817.2
2019-Jan-15 19:00N 52°13' W 006°07'917.0
2019-Jan-15 18:30N 52°16' W 006°20'0 0.6
2019-Jan-15 18:00N 52°15' W 006°20'0 0.0
2019-Jan-15 17:30N 52°15' W 006°20'0 0.0
2019-Jan-15 17:00N 52°15' W 006°20'0 0.7
2019-Jan-15 16:30N 52°16' W 006°20'815.6
2019-Jan-15 16:00N 52°14' W 006°08'816.2
2019-Jan-15 15:30N 52°12' W 005°55'816.1
2019-Jan-15 15:00N 52°10' W 005°42'4 0.7
2019-Jan-15 09:07N 52°10' W 005°49'217.5
2019-Jan-15 08:59N 52°10' W 005°52'817.2
2019-Jan-15 08:31N 52°12' W 006°05'917.0
2019-Jan-15 08:01N 52°15' W 006°18'1 2.7
2019-Jan-15 07:30N 52°15' W 006°20'0 0.0
2019-Jan-15 07:00N 52°15' W 006°20'0 0.0
2019-Jan-15 06:30N 52°15' W 006°20'0 0.0
2019-Jan-15 06:00N 52°15' W 006°20'0 0.0
2019-Jan-15 05:30N 52°15' W 006°20'0 0.0
2019-Jan-15 05:01N 52°15' W 006°20'0 0.0
2019-Jan-15 04:31N 52°15' W 006°20'0 0.0
2019-Jan-15 04:00N 52°15' W 006°20'3 5.5
2019-Jan-15 03:30N 52°14' W 006°16'815.8
2019-Jan-15 03:00N 52°13' W 006°03'815.2
2019-Jan-15 02:30N 52°11' W 005°51'815.2
2019-Jan-15 02:00N 52°09' W 005°40'4 0.8
2019-Jan-14 20:14N 52°10' W 005°46'315.2
2019-Jan-14 20:00N 52°11' W 005°52'816.2
2019-Jan-14 19:30N 52°13' W 006°04'815.6
2019-Jan-14 19:00N 52°15' W 006°17'2 4.4
2019-Jan-14 18:30N 52°15' W 006°20'0 0.0
2019-Jan-14 18:00N 52°15' W 006°20'0 0.0
2019-Jan-14 17:30N 52°15' W 006°20'0 0.0
2019-Jan-14 17:00N 52°15' W 006°20'0 0.0
2019-Jan-14 16:30N 52°15' W 006°20'0 0.0
2019-Jan-14 16:00N 52°15' W 006°20'0 0.0
2019-Jan-14 15:30N 52°15' W 006°20'0 0.0
2019-Jan-14 15:00N 52°15' W 006°20'0 0.0
2019-Jan-14 14:30N 52°15' W 006°20'0 0.0
2019-Jan-14 14:00N 52°15' W 006°20'0 0.0
2019-Jan-14 13:30N 52°15' W 006°20'0 0.0
2019-Jan-14 13:00N 52°15' W 006°20'0 0.0
2019-Jan-14 12:30N 52°15' W 006°20'0 0.0
2019-Jan-14 12:00N 52°15' W 006°20'0 0.0
2019-Jan-14 11:30N 52°15' W 006°20'0 0.0
2019-Jan-14 11:00N 52°15' W 006°20'0 0.0
2019-Jan-14 10:30N 52°15' W 006°20'0 0.0
2019-Jan-14 10:00N 52°15' W 006°20'0 0.0
2019-Jan-14 09:30N 52°15' W 006°20'0 0.0
2019-Jan-14 09:00N 52°15' W 006°20'0 0.0
2019-Jan-14 08:30N 52°15' W 006°20'0 0.0
2019-Jan-14 08:00N 52°15' W 006°20'0 0.0
2019-Jan-14 07:30N 52°15' W 006°20'0 0.0
2019-Jan-14 07:00N 52°15' W 006°20'0 0.0
2019-Jan-14 06:30N 52°15' W 006°20'0 0.0
2019-Jan-14 06:00N 52°15' W 006°20'0 0.0
2019-Jan-14 05:30N 52°15' W 006°20'0 0.0
2019-Jan-14 05:00N 52°15' W 006°20'0 0.0
2019-Jan-14 04:30N 52°15' W 006°20'0 0.0
2019-Jan-14 04:00N 52°15' W 006°20'0 0.0
2019-Jan-14 03:30N 52°15' W 006°20'0 0.0
2019-Jan-14 03:00N 52°15' W 006°20'0 0.0
2019-Jan-14 02:30N 52°15' W 006°20'0 0.0
2019-Jan-14 02:00N 52°15' W 006°20'0 0.0
2019-Jan-14 01:30N 52°15' W 006°20'0 0.0
2019-Jan-14 01:00N 52°15' W 006°20'0 0.0
2019-Jan-14 00:30N 52°15' W 006°20'0 0.0
2019-Jan-14 00:00N 52°15' W 006°20'0 0.0
2019-Jan-13 23:30N 52°15' W 006°20'0 0.0
2019-Jan-13 23:00N 52°15' W 006°20'0 0.0
2019-Jan-13 22:30N 52°15' W 006°20'0 0.0
2019-Jan-13 22:00N 52°15' W 006°20'0 0.0
2019-Jan-13 21:30N 52°15' W 006°20'0 0.0
2019-Jan-13 21:00N 52°15' W 006°20'0 0.0
2019-Jan-13 20:30N 52°15' W 006°20'0 0.0
2019-Jan-13 20:00N 52°15' W 006°20'0 0.0
2019-Jan-13 19:30N 52°15' W 006°20'0 0.0
2019-Jan-13 19:00N 52°15' W 006°20'0 0.0
2019-Jan-13 18:30N 52°15' W 006°20'0 0.0
2019-Jan-13 18:00N 52°15' W 006°20'0 0.0
2019-Jan-13 17:30N 52°15' W 006°20'  
Track history (hours):
 
Tides and Currents Weather Stations Pressure Air Temp Water Temp Dewpoint Dewpoint Depression Visibility Wind Speed Wind Dir Waves Ship Positions

Stena Europe

Operator: Stena Line

Last reported at 2019-Jan-23 17:30 UTC. Time now 2019-Jan-23 17:34 UTC.
Position N 52°15' W 006°20'.

Length 149 m; draft 6.1 m.

Type: Passenger vessel. MMSI: 235004539.

Date/timePositionNaut miles runAvg speedWind from/ knotsBaromVisibWave heightAir tempDewpointWater temp
2019-Jan-23 17:30N 52°15' W 006°20'0 0.0
2019-Jan-23 17:00N 52°15' W 006°20'0 0.0
2019-Jan-23 16:30N 52°15' W 006°20'3 6.9
2019-Jan-23 16:00N 52°14' W 006°15'917.0
2019-Jan-23 15:30N 52°11' W 006°02'917.1
2019-Jan-23 15:00N 52°09' W 005°48'2 0.3
2019-Jan-23 09:15N 52°10' W 005°45'417.4
2019-Jan-23 09:00N 52°11' W 005°52'917.3
2019-Jan-23 08:30N 52°13' W 006°06'816.8
2019-Jan-23 08:00N 52°16' W 006°19'1 2.0
2019-Jan-23 07:30N 52°15' W 006°20'0 0.0
2019-Jan-23 07:00N 52°15' W 006°20'0 0.0
2019-Jan-23 06:30N 52°15' W 006°20'0 0.0
2019-Jan-23 06:00N 52°15' W 006°20'0 0.0
2019-Jan-23 05:30N 52°15' W 006°20'0 0.0
2019-Jan-23 05:00N 52°15' W 006°20'0 0.0
2019-Jan-23 04:30N 52°15' W 006°20'0 0.0
2019-Jan-23 04:00N 52°15' W 006°20'3 5.1
2019-Jan-23 03:30N 52°15' W 006°16'815.9
2019-Jan-23 03:00N 52°13' W 006°03'815.8
2019-Jan-23 02:28N 52°10' W 005°50'6 0.8
2019-Jan-22 19:08N 52°11' W 005°59'216.8
2019-Jan-22 19:00N 52°12' W 006°03'816.8
2019-Jan-22 18:30N 52°15' W 006°15'3 6.0
2019-Jan-22 18:00N 52°15' W 006°20'0 0.0
2019-Jan-22 17:30N 52°15' W 006°20'0 0.0
2019-Jan-22 17:00N 52°15' W 006°20'1 1.4
2019-Jan-22 16:31N 52°16' W 006°19'815.5
2019-Jan-22 16:00N 52°13' W 006°07'815.6
2019-Jan-22 15:30N 52°11' W 005°55'7 1.1
2019-Jan-22 09:18N 52°10' W 005°44'516.9
2019-Jan-22 09:00N 52°11' W 005°52'917.2
2019-Jan-22 08:30N 52°13' W 006°05'816.6
2019-Jan-22 08:00N 52°15' W 006°18'1 2.3
2019-Jan-22 07:30N 52°15' W 006°20'0 0.0
2019-Jan-22 07:00N 52°15' W 006°20'0 0.0
2019-Jan-22 06:30N 52°15' W 006°20'0 0.0
2019-Jan-22 06:00N 52°15' W 006°20'0 0.0
2019-Jan-22 05:30N 52°15' W 006°20'0 0.0
2019-Jan-22 05:00N 52°15' W 006°20'0 0.0
2019-Jan-22 04:30N 52°15' W 006°20'0 0.0
2019-Jan-22 04:00N 52°15' W 006°20'3 5.6
2019-Jan-22 03:30N 52°14' W 006°16'1313.3
2019-Jan-22 02:30N 52°13' W 005°54'7 0.9
2019-Jan-21 19:28N 52°10' W 005°45'716.5
2019-Jan-21 19:01N 52°11' W 005°57'816.2
2019-Jan-21 18:30N 52°14' W 006°09'713.6
2019-Jan-21 18:00N 52°15' W 006°20'0 0.1
2019-Jan-21 17:30N 52°15' W 006°20'0 0.0
2019-Jan-21 17:00N 52°15' W 006°20'2 4.1
2019-Jan-21 16:31N 52°15' W 006°17'815.6
2019-Jan-21 16:01N 52°13' W 006°05'816.0
2019-Jan-21 15:31N 52°11' W 005°52'2 0.4
2019-Jan-21 09:05N 52°09' W 005°49'117.2
2019-Jan-21 09:00N 52°10' W 005°51'917.5
2019-Jan-21 08:29N 52°13' W 006°05'817.2
2019-Jan-21 08:00N 52°15' W 006°18'1 2.5
2019-Jan-21 07:31N 52°15' W 006°20'0 0.0
2019-Jan-21 07:01N 52°15' W 006°20'0 0.0
2019-Jan-21 06:30N 52°15' W 006°20'0 0.0
2019-Jan-21 06:01N 52°15' W 006°20'0 0.0
2019-Jan-21 05:31N 52°15' W 006°20'0 0.0
2019-Jan-21 05:00N 52°15' W 006°20'0 0.0
2019-Jan-21 04:30N 52°15' W 006°20'0 0.0
2019-Jan-21 04:00N 52°15' W 006°20'3 5.6
2019-Jan-21 03:30N 52°15' W 006°16'816.6
2019-Jan-21 03:00N 52°12' W 006°03'713.8
2019-Jan-21 02:30N 52°11' W 005°52'3 0.4
2019-Jan-20 18:53N 52°11' W 005°57'717.2
2019-Jan-20 18:30N 52°14' W 006°07'816.3
2019-Jan-20 18:00N 52°16' W 006°20'1 1.0
2019-Jan-20 17:30N 52°15' W 006°20'0 0.0
2019-Jan-20 17:00N 52°15' W 006°20'0 0.0
2019-Jan-20 16:30N 52°15' W 006°20'2 4.9
2019-Jan-20 16:00N 52°15' W 006°16'816.5
2019-Jan-20 15:30N 52°13' W 006°03'816.4
2019-Jan-20 15:00N 52°11' W 005°50'4 0.7
2019-Jan-20 08:40N 52°12' W 005°57'317.6
2019-Jan-20 08:30N 52°12' W 006°02'917.3
2019-Jan-20 08:01N 52°14' W 006°15'3 6.3
2019-Jan-20 07:30N 52°15' W 006°20'0 0.0
2019-Jan-20 07:00N 52°15' W 006°20'0 0.0
2019-Jan-20 06:30N 52°15' W 006°20'0 0.0
2019-Jan-20 06:00N 52°15' W 006°20'0 0.0
2019-Jan-20 05:30N 52°15' W 006°20'0 0.0
2019-Jan-20 05:00N 52°15' W 006°20'0 0.0
2019-Jan-20 04:30N 52°15' W 006°20'0 0.0
2019-Jan-20 04:00N 52°15' W 006°20'2 4.8
2019-Jan-20 03:30N 52°15' W 006°16'815.4
2019-Jan-20 03:00N 52°13' W 006°04'612.8
2019-Jan-20 02:30N 52°11' W 005°54'713.0
2019-Jan-20 02:00N 52°10' W 005°44'8 1.1
2019-Jan-19 19:04N 52°11' W 005°56'117.1
2019-Jan-19 19:00N 52°11' W 005°58'817.4
2019-Jan-19 18:31N 52°14' W 006°11'611.8
2019-Jan-19 18:00N 52°15' W 006°20'0 0.0
2019-Jan-19 17:30N 52°15' W 006°20'0 0.0
2019-Jan-19 17:01N 52°15' W 006°20'1 2.2
2019-Jan-19 16:30N 52°15' W 006°18'815.9
2019-Jan-19 16:00N 52°13' W 006°06'815.8
2019-Jan-19 15:30N 52°11' W 005°53'4 0.6
2019-Jan-19 08:51N 52°12' W 005°60'616.8
2019-Jan-19 08:30N 52°13' W 006°09'714.7
2019-Jan-19 08:00N 52°15' W 006°20'0 0.2
2019-Jan-19 07:30N 52°15' W 006°20'0 0.0
2019-Jan-19 07:00N 52°15' W 006°20'0 0.0
2019-Jan-19 06:30N 52°15' W 006°20'0 0.0
2019-Jan-19 06:00N 52°15' W 006°20'0 0.0
2019-Jan-19 05:30N 52°15' W 006°20'0 0.0
2019-Jan-19 05:01N 52°15' W 006°20'0 0.0
2019-Jan-19 04:30N 52°15' W 006°20'0 0.0
2019-Jan-19 04:00N 52°15' W 006°20'4 8.2
2019-Jan-19 03:31N 52°14' W 006°14'713.2
2019-Jan-19 03:00N 52°15' W 006°03'612.2
2019-Jan-19 02:30N 52°15' W 005°53'712.8
2019-Jan-19 01:59N 52°13' W 005°43'10 1.5
2019-Jan-18 19:29N 52°12' W 005°58'817.8
2019-Jan-18 19:00N 52°14' W 006°12'510.7
2019-Jan-18 18:31N 52°15' W 006°20'0 0.0
2019-Jan-18 18:01N 52°15' W 006°20'0 0.8
2019-Jan-18 17:30N 52°16' W 006°20'815.8
2019-Jan-18 17:00N 52°13' W 006°08'815.6
2019-Jan-18 16:30N 52°11' W 005°55'0 0.0
2019-Jan-18 09:04N 52°11' W 005°56'414.4
2019-Jan-18 08:49N 52°12' W 006°01'414.0
2019-Jan-18 08:30N 52°13' W 006°08'714.3
2019-Jan-18 08:00N 52°16' W 006°19'1 1.3
2019-Jan-18 07:31N 52°15' W 006°20'0 0.0
2019-Jan-18 07:00N 52°15' W 006°20'0 0.0
2019-Jan-18 06:30N 52°15' W 006°20'0 0.0
2019-Jan-18 06:00N 52°15' W 006°20'0 0.0
2019-Jan-18 05:31N 52°15' W 006°20'0 0.0
2019-Jan-18 05:00N 52°15' W 006°20'0 0.0
2019-Jan-18 04:30N 52°15' W 006°20'0 0.1
2019-Jan-18 04:01N 52°15' W 006°20'5 9.8
2019-Jan-18 03:30N 52°14' W 006°12'816.4
2019-Jan-18 03:00N 52°12' W 005°59'817.0
2019-Jan-18 02:30N 52°10' W 005°46'3 0.5
2019-Jan-17 20:33N 52°10' W 005°50'517.8
2019-Jan-17 20:15N 52°12' W 005°59'417.7
2019-Jan-17 20:00N 52°13' W 006°06'917.6
2019-Jan-17 19:30N 52°16' W 006°19'1 1.3
2019-Jan-17 19:00N 52°15' W 006°20'0 0.0
2019-Jan-17 18:30N 52°15' W 006°20'0 0.2
2019-Jan-17 18:00N 52°15' W 006°20'511.0
2019-Jan-17 17:30N 52°14' W 006°12'816.9
2019-Jan-17 17:01N 52°12' W 005°58'816.6
2019-Jan-17 16:30N 52°10' W 005°45'4 0.6
2019-Jan-17 09:05N 52°10' W 005°52'116.7
2019-Jan-17 09:00N 52°11' W 005°54'816.7
2019-Jan-17 08:30N 52°13' W 006°07'816.6
2019-Jan-17 08:00N 52°16' W 006°20'0 0.9
2019-Jan-17 07:31N 52°15' W 006°20'0 0.0
2019-Jan-17 07:00N 52°15' W 006°20'0 0.0
2019-Jan-17 06:30N 52°15' W 006°20'0 0.0
2019-Jan-17 06:01N 52°15' W 006°20'0 0.0
2019-Jan-17 05:30N 52°15' W 006°20'0 0.0
2019-Jan-17 05:01N 52°15' W 006°20'0 0.0
2019-Jan-17 04:31N 52°15' W 006°20'0 0.0
2019-Jan-17 04:01N 52°15' W 006°20'1010.1
2019-Jan-17 03:00N 52°13' W 006°04'815.4
2019-Jan-17 02:30N 52°11' W 005°52'2 0.3
2019-Jan-16 19:09N 52°11' W 005°55'317.5
2019-Jan-16 19:00N 52°12' W 005°60'817.2
2019-Jan-16 18:30N 52°14' W 006°13'5 9.2
2019-Jan-16 18:00N 52°15' W 006°20'0 0.0
2019-Jan-16 17:30N 52°15' W 006°20'0 0.0
2019-Jan-16 17:00N 52°15' W 006°20'1 1.8
2019-Jan-16 16:30N 52°16' W 006°19'816.4
2019-Jan-16 16:00N 52°13' W 006°06'816.0
2019-Jan-16 15:30N 52°11' W 005°53'2 0.3
2019-Jan-16 09:03N 52°10' W 005°51'117.1
2019-Jan-16 09:00N 52°10' W 005°52'817.0
2019-Jan-16 08:30N 52°13' W 006°05'816.9
2019-Jan-16 08:00N 52°15' W 006°18'1 2.6
2019-Jan-16 07:30N 52°15' W 006°20'0 0.0
2019-Jan-16 07:00N 52°15' W 006°20'0 0.0
2019-Jan-16 06:30N 52°15' W 006°20'0 0.0
2019-Jan-16 06:00N 52°15' W 006°20'0 0.0
2019-Jan-16 05:30N 52°15' W 006°20'0 0.0
2019-Jan-16 05:00N 52°15' W 006°20'0 0.0
2019-Jan-16 04:30N 52°15' W 006°20'0 0.0
2019-Jan-16 04:00N 52°15' W 006°20'3 6.9
2019-Jan-16 03:30N 52°14' W 006°15'713.7
2019-Jan-16 03:00N 52°13' W 006°04'713.0
2019-Jan-16 02:30N 52°11' W 005°54'3 0.5
2019-Jan-15 19:41N 52°10' W 005°48'317.2
2019-Jan-15 19:30N 52°11' W 005°54'817.2
2019-Jan-15 19:00N 52°13' W 006°07'917.0
2019-Jan-15 18:30N 52°16' W 006°20'0 0.6
2019-Jan-15 18:00N 52°15' W 006°20'0 0.0
2019-Jan-15 17:30N 52°15' W 006°20'0 0.0
2019-Jan-15 17:00N 52°15' W 006°20'0 0.7
2019-Jan-15 16:30N 52°16' W 006°20'815.6
2019-Jan-15 16:00N 52°14' W 006°08'816.2
2019-Jan-15 15:30N 52°12' W 005°55'816.1
2019-Jan-15 15:00N 52°10' W 005°42'4 0.7
2019-Jan-15 09:07N 52°10' W 005°49'217.5
2019-Jan-15 08:59N 52°10' W 005°52'817.2
2019-Jan-15 08:31N 52°12' W 006°05'917.0
2019-Jan-15 08:01N 52°15' W 006°18'1 2.7
2019-Jan-15 07:30N 52°15' W 006°20'0 0.0
2019-Jan-15 07:00N 52°15' W 006°20'0 0.0
2019-Jan-15 06:30N 52°15' W 006°20'0 0.0
2019-Jan-15 06:00N 52°15' W 006°20'0 0.0
2019-Jan-15 05:30N 52°15' W 006°20'0 0.0
2019-Jan-15 05:01N 52°15' W 006°20'0 0.0
2019-Jan-15 04:31N 52°15' W 006°20'0 0.0
2019-Jan-15 04:00N 52°15' W 006°20'3 5.5
2019-Jan-15 03:30N 52°14' W 006°16'815.8
2019-Jan-15 03:00N 52°13' W 006°03'815.2
2019-Jan-15 02:30N 52°11' W 005°51'815.2
2019-Jan-15 02:00N 52°09' W 005°40'4 0.8
2019-Jan-14 20:14N 52°10' W 005°46'315.2
2019-Jan-14 20:00N 52°11' W 005°52'816.2
2019-Jan-14 19:30N 52°13' W 006°04'815.6
2019-Jan-14 19:00N 52°15' W 006°17'2 4.4
2019-Jan-14 18:30N 52°15' W 006°20'0 0.0
2019-Jan-14 18:00N 52°15' W 006°20'0 0.0
2019-Jan-14 17:30N 52°15' W 006°20'0 0.0
2019-Jan-14 17:00N 52°15' W 006°20'0 0.0
2019-Jan-14 16:30N 52°15' W 006°20'0 0.0
2019-Jan-14 16:00N 52°15' W 006°20'0 0.0
2019-Jan-14 15:30N 52°15' W 006°20'0 0.0
2019-Jan-14 15:00N 52°15' W 006°20'0 0.0
2019-Jan-14 14:30N 52°15' W 006°20'0 0.0
2019-Jan-14 14:00N 52°15' W 006°20'0 0.0
2019-Jan-14 13:30N 52°15' W 006°20'0 0.0
2019-Jan-14 13:00N 52°15' W 006°20'0 0.0
2019-Jan-14 12:30N 52°15' W 006°20'0 0.0
2019-Jan-14 12:00N 52°15' W 006°20'0 0.0
2019-Jan-14 11:30N 52°15' W 006°20'0 0.0
2019-Jan-14 11:00N 52°15' W 006°20'0 0.0
2019-Jan-14 10:30N 52°15' W 006°20'0 0.0
2019-Jan-14 10:00N 52°15' W 006°20'0 0.0
2019-Jan-14 09:30N 52°15' W 006°20'0 0.0
2019-Jan-14 09:00N 52°15' W 006°20'0 0.0
2019-Jan-14 08:30N 52°15' W 006°20'0 0.0
2019-Jan-14 08:00N 52°15' W 006°20'0 0.0
2019-Jan-14 07:30N 52°15' W 006°20'0 0.0
2019-Jan-14 07:00N 52°15' W 006°20'0 0.0
2019-Jan-14 06:30N 52°15' W 006°20'0 0.0
2019-Jan-14 06:00N 52°15' W 006°20'0 0.0
2019-Jan-14 05:30N 52°15' W 006°20'0 0.0
2019-Jan-14 05:00N 52°15' W 006°20'0 0.0
2019-Jan-14 04:30N 52°15' W 006°20'0 0.0
2019-Jan-14 04:00N 52°15' W 006°20'0 0.0
2019-Jan-14 03:30N 52°15' W 006°20'0 0.0
2019-Jan-14 03:00N 52°15' W 006°20'0 0.0
2019-Jan-14 02:30N 52°15' W 006°20'0 0.0
2019-Jan-14 02:00N 52°15' W 006°20'0 0.0
2019-Jan-14 01:30N 52°15' W 006°20'0 0.0
2019-Jan-14 01:00N 52°15' W 006°20'0 0.0
2019-Jan-14 00:30N 52°15' W 006°20'0 0.0
2019-Jan-14 00:00N 52°15' W 006°20'0 0.0
2019-Jan-13 23:30N 52°15' W 006°20'0 0.0
2019-Jan-13 23:00N 52°15' W 006°20'0 0.0
2019-Jan-13 22:30N 52°15' W 006°20'0 0.0
2019-Jan-13 22:00N 52°15' W 006°20'0 0.0
2019-Jan-13 21:30N 52°15' W 006°20'0 0.0
2019-Jan-13 21:00N 52°15' W 006°20'0 0.0
2019-Jan-13 20:30N 52°15' W 006°20'0 0.0
2019-Jan-13 20:00N 52°15' W 006°20'0 0.0
2019-Jan-13 19:30N 52°15' W 006°20'0 0.0
2019-Jan-13 19:00N 52°15' W 006°20'0 0.0
2019-Jan-13 18:30N 52°15' W 006°20'0 0.0
2019-Jan-13 18:00N 52°15' W 006°20'0 0.0
2019-Jan-13 17:30N 52°15' W 006°20'  

Dump ship's entire track history